sensor_id;sensor_type;location;lat;lon;timestamp;P1;durP1;ratioP1;P2;durP2;ratioP2
4794;SDS011;2411;47.060;15.064;2022-09-30T00:01:22;3.30;;;3.00;;
4794;SDS011;2411;47.060;15.064;2022-09-30T00:03:51;3.90;;;3.60;;
4794;SDS011;2411;47.060;15.064;2022-09-30T00:06:19;2.60;;;2.40;;
4794;SDS011;2411;47.060;15.064;2022-09-30T00:08:47;2.73;;;2.53;;
4794;SDS011;2411;47.060;15.064;2022-09-30T00:11:15;2.73;;;2.53;;
4794;SDS011;2411;47.060;15.064;2022-09-30T00:13:45;2.90;;;2.80;;
4794;SDS011;2411;47.060;15.064;2022-09-30T00:16:14;3.53;;;3.23;;
4794;SDS011;2411;47.060;15.064;2022-09-30T00:18:42;3.77;;;3.47;;
4794;SDS011;2411;47.060;15.064;2022-09-30T00:21:10;3.40;;;3.20;;
4794;SDS011;2411;47.060;15.064;2022-09-30T00:23:38;3.10;;;2.90;;
4794;SDS011;2411;47.060;15.064;2022-09-30T00:26:06;3.57;;;3.37;;
4794;SDS011;2411;47.060;15.064;2022-09-30T00:28:38;2.60;;;2.50;;
4794;SDS011;2411;47.060;15.064;2022-09-30T00:31:07;2.43;;;2.33;;
4794;SDS011;2411;47.060;15.064;2022-09-30T00:33:37;2.53;;;1.97;;
4794;SDS011;2411;47.060;15.064;2022-09-30T00:36:05;2.30;;;2.20;;
4794;SDS011;2411;47.060;15.064;2022-09-30T00:38:32;2.73;;;2.53;;
4794;SDS011;2411;47.060;15.064;2022-09-30T00:40:59;2.10;;;2.00;;
4794;SDS011;2411;47.060;15.064;2022-09-30T00:43:37;1.93;;;1.83;;
4794;SDS011;2411;47.060;15.064;2022-09-30T00:49:24;1.60;;;1.53;;
4794;SDS011;2411;47.060;15.064;2022-09-30T00:51:52;2.30;;;2.20;;
4794;SDS011;2411;47.060;15.064;2022-09-30T00:54:25;2.07;;;1.97;;
4794;SDS011;2411;47.060;15.064;2022-09-30T00:56:58;2.60;;;1.90;;
4794;SDS011;2411;47.060;15.064;2022-09-30T00:59:28;1.80;;;1.70;;
4794;SDS011;2411;47.060;15.064;2022-09-30T01:01:59;2.50;;;2.40;;
4794;SDS011;2411;47.060;15.064;2022-09-30T01:04:27;2.40;;;2.30;;
4794;SDS011;2411;47.060;15.064;2022-09-30T01:07:03;6.90;;;2.70;;
4794;SDS011;2411;47.060;15.064;2022-09-30T01:09:33;2.73;;;2.53;;
4794;SDS011;2411;47.060;15.064;2022-09-30T01:12:05;3.87;;;3.00;;
4794;SDS011;2411;47.060;15.064;2022-09-30T01:14:39;3.20;;;3.00;;
4794;SDS011;2411;47.060;15.064;2022-09-30T01:17:16;3.40;;;3.10;;
4794;SDS011;2411;47.060;15.064;2022-09-30T01:33:45;2.60;;;2.50;;
4794;SDS011;2411;47.060;15.064;2022-09-30T01:41:54;3.30;;;3.10;;
4794;SDS011;2411;47.060;15.064;2022-09-30T01:47:13;4.50;;;4.13;;
4794;SDS011;2411;47.060;15.064;2022-09-30T01:49:58;3.90;;;3.60;;
4794;SDS011;2411;47.060;15.064;2022-09-30T01:52:43;3.90;;;3.70;;
4794;SDS011;2411;47.060;15.064;2022-09-30T01:58:08;4.50;;;4.20;;
4794;SDS011;2411;47.060;15.064;2022-09-30T02:00:40;5.10;;;4.70;;
4794;SDS011;2411;47.060;15.064;2022-09-30T02:03:11;4.83;;;4.33;;
4794;SDS011;2411;47.060;15.064;2022-09-30T02:05:44;4.20;;;4.00;;
4794;SDS011;2411;47.060;15.064;2022-09-30T02:08:27;4.60;;;4.30;;
4794;SDS011;2411;47.060;15.064;2022-09-30T02:11:12;3.47;;;3.27;;
4794;SDS011;2411;47.060;15.064;2022-09-30T02:16:44;2.97;;;2.77;;
4794;SDS011;2411;47.060;15.064;2022-09-30T02:19:30;3.40;;;3.20;;
4794;SDS011;2411;47.060;15.064;2022-09-30T02:22:09;3.00;;;2.80;;
4794;SDS011;2411;47.060;15.064;2022-09-30T02:24:49;2.87;;;2.67;;
4794;SDS011;2411;47.060;15.064;2022-09-30T02:27:24;3.30;;;3.10;;
4794;SDS011;2411;47.060;15.064;2022-09-30T02:29:57;2.23;;;2.13;;
4794;SDS011;2411;47.060;15.064;2022-09-30T02:32:51;2.87;;;2.60;;
4794;SDS011;2411;47.060;15.064;2022-09-30T02:37:57;1.90;;;1.80;;
4794;SDS011;2411;47.060;15.064;2022-09-30T02:40:40;2.37;;;2.20;;
4794;SDS011;2411;47.060;15.064;2022-09-30T02:43:17;2.77;;;2.57;;
4794;SDS011;2411;47.060;15.064;2022-09-30T02:51:02;3.70;;;3.50;;
4794;SDS011;2411;47.060;15.064;2022-09-30T02:53:42;3.83;;;3.53;;
4794;SDS011;2411;47.060;15.064;2022-09-30T02:58:55;3.70;;;3.43;;
4794;SDS011;2411;47.060;15.064;2022-09-30T03:01:23;4.53;;;4.13;;
4794;SDS011;2411;47.060;15.064;2022-09-30T03:03:55;4.00;;;3.70;;
4794;SDS011;2411;47.060;15.064;2022-09-30T03:06:25;6.80;;;4.30;;
4794;SDS011;2411;47.060;15.064;2022-09-30T03:08:54;4.20;;;3.83;;
4794;SDS011;2411;47.060;15.064;2022-09-30T03:11:24;3.37;;;3.17;;
4794;SDS011;2411;47.060;15.064;2022-09-30T03:28:30;3.97;;;3.40;;
4794;SDS011;2411;47.060;15.064;2022-09-30T03:30:34;3.10;;;2.90;;
4794;SDS011;2411;47.060;15.064;2022-09-30T03:33:09;2.73;;;2.63;;
4794;SDS011;2411;47.060;15.064;2022-09-30T03:35:43;2.80;;;2.30;;
4794;SDS011;2411;47.060;15.064;2022-09-30T03:46:23;2.50;;;2.40;;
4794;SDS011;2411;47.060;15.064;2022-09-30T03:48:55;2.60;;;2.50;;
4794;SDS011;2411;47.060;15.064;2022-09-30T03:51:26;3.10;;;2.90;;
4794;SDS011;2411;47.060;15.064;2022-09-30T03:53:55;2.33;;;2.23;;
4794;SDS011;2411;47.060;15.064;2022-09-30T03:56:29;2.77;;;2.50;;
4794;SDS011;2411;47.060;15.064;2022-09-30T03:58:57;1.87;;;1.80;;
4794;SDS011;2411;47.060;15.064;2022-09-30T04:01:24;2.57;;;2.47;;
4794;SDS011;2411;47.060;15.064;2022-09-30T04:03:51;3.40;;;3.10;;
4794;SDS011;2411;47.060;15.064;2022-09-30T04:06:19;3.40;;;3.20;;
4794;SDS011;2411;47.060;15.064;2022-09-30T04:08:47;3.60;;;3.30;;
4794;SDS011;2411;47.060;15.064;2022-09-30T04:11:15;3.50;;;3.30;;
4794;SDS011;2411;47.060;15.064;2022-09-30T04:13:43;3.27;;;2.97;;
4794;SDS011;2411;47.060;15.064;2022-09-30T04:16:09;4.00;;;3.70;;
4794;SDS011;2411;47.060;15.064;2022-09-30T04:18:37;3.67;;;3.47;;
4794;SDS011;2411;47.060;15.064;2022-09-30T04:21:08;3.30;;;3.10;;
4794;SDS011;2411;47.060;15.064;2022-09-30T04:23:37;4.93;;;3.30;;
4794;SDS011;2411;47.060;15.064;2022-09-30T04:26:06;3.20;;;3.00;;
4794;SDS011;2411;47.060;15.064;2022-09-30T04:28:35;3.37;;;3.17;;
4794;SDS011;2411;47.060;15.064;2022-09-30T04:31:03;11.07;;;9.03;;
4794;SDS011;2411;47.060;15.064;2022-09-30T04:33:31;9.27;;;8.27;;
4794;SDS011;2411;47.060;15.064;2022-09-30T04:35:59;9.00;;;8.10;;
4794;SDS011;2411;47.060;15.064;2022-09-30T04:38:26;12.60;;;9.43;;
4794;SDS011;2411;47.060;15.064;2022-09-30T04:40:54;6.83;;;6.33;;
4794;SDS011;2411;47.060;15.064;2022-09-30T04:43:22;6.70;;;6.10;;
4794;SDS011;2411;47.060;15.064;2022-09-30T04:45:50;5.20;;;4.73;;
4794;SDS011;2411;47.060;15.064;2022-09-30T04:48:18;5.97;;;4.10;;
4794;SDS011;2411;47.060;15.064;2022-09-30T04:50:47;3.03;;;2.40;;
4794;SDS011;2411;47.060;15.064;2022-09-30T04:53:15;1.90;;;1.70;;
4794;SDS011;2411;47.060;15.064;2022-09-30T04:55:43;2.27;;;2.07;;
4794;SDS011;2411;47.060;15.064;2022-09-30T04:58:11;2.50;;;2.30;;
4794;SDS011;2411;47.060;15.064;2022-09-30T05:00:38;2.90;;;2.37;;
4794;SDS011;2411;47.060;15.064;2022-09-30T05:03:05;2.80;;;2.33;;
4794;SDS011;2411;47.060;15.064;2022-09-30T05:05:32;3.50;;;2.80;;
4794;SDS011;2411;47.060;15.064;2022-09-30T05:08:00;2.50;;;2.40;;
4794;SDS011;2411;47.060;15.064;2022-09-30T05:10:30;1.93;;;1.20;;
4794;SDS011;2411;47.060;15.064;2022-09-30T05:12:57;4.10;;;2.33;;
4794;SDS011;2411;47.060;15.064;2022-09-30T05:15:24;2.60;;;2.40;;
4794;SDS011;2411;47.060;15.064;2022-09-30T05:17:52;2.40;;;2.20;;
4794;SDS011;2411;47.060;15.064;2022-09-30T05:20:19;2.00;;;1.90;;
4794;SDS011;2411;47.060;15.064;2022-09-30T05:22:47;2.47;;;2.00;;
4794;SDS011;2411;47.060;15.064;2022-09-30T05:25:19;2.10;;;1.93;;
4794;SDS011;2411;47.060;15.064;2022-09-30T05:27:49;2.03;;;1.90;;
4794;SDS011;2411;47.060;15.064;2022-09-30T05:30:16;2.00;;;1.83;;
4794;SDS011;2411;47.060;15.064;2022-09-30T05:32:43;2.30;;;2.10;;
4794;SDS011;2411;47.060;15.064;2022-09-30T05:35:11;3.90;;;2.37;;
4794;SDS011;2411;47.060;15.064;2022-09-30T05:37:38;1.17;;;1.17;;
4794;SDS011;2411;47.060;15.064;2022-09-30T05:40:06;4.20;;;1.57;;
4794;SDS011;2411;47.060;15.064;2022-09-30T05:42:33;4.33;;;1.20;;
4794;SDS011;2411;47.060;15.064;2022-09-30T05:45:03;1.70;;;1.30;;
4794;SDS011;2411;47.060;15.064;2022-09-30T05:47:32;2.97;;;1.30;;
4794;SDS011;2411;47.060;15.064;2022-09-30T05:49:59;3.50;;;3.00;;
4794;SDS011;2411;47.060;15.064;2022-09-30T05:52:26;5.47;;;3.90;;
4794;SDS011;2411;47.060;15.064;2022-09-30T05:54:53;4.20;;;3.67;;
4794;SDS011;2411;47.060;15.064;2022-09-30T05:57:22;4.10;;;3.70;;
4794;SDS011;2411;47.060;15.064;2022-09-30T05:59:50;4.00;;;3.60;;
4794;SDS011;2411;47.060;15.064;2022-09-30T06:02:17;4.40;;;4.00;;
4794;SDS011;2411;47.060;15.064;2022-09-30T06:04:44;4.00;;;3.60;;
4794;SDS011;2411;47.060;15.064;2022-09-30T06:07:11;5.30;;;4.70;;
4794;SDS011;2411;47.060;15.064;2022-09-30T06:09:39;5.07;;;3.70;;
4794;SDS011;2411;47.060;15.064;2022-09-30T06:12:06;7.60;;;4.50;;
4794;SDS011;2411;47.060;15.064;2022-09-30T06:14:33;6.70;;;5.90;;
4794;SDS011;2411;47.060;15.064;2022-09-30T06:17:00;24.53;;;4.60;;
4794;SDS011;2411;47.060;15.064;2022-09-30T06:19:27;4.57;;;4.17;;
4794;SDS011;2411;47.060;15.064;2022-09-30T06:21:56;5.83;;;4.17;;
4794;SDS011;2411;47.060;15.064;2022-09-30T06:24:23;4.93;;;4.30;;
4794;SDS011;2411;47.060;15.064;2022-09-30T06:26:50;5.23;;;4.83;;
4794;SDS011;2411;47.060;15.064;2022-09-30T06:29:17;4.00;;;3.70;;
4794;SDS011;2411;47.060;15.064;2022-09-30T06:31:44;5.60;;;4.37;;
4794;SDS011;2411;47.060;15.064;2022-09-30T06:34:11;4.37;;;3.97;;
4794;SDS011;2411;47.060;15.064;2022-09-30T06:36:38;3.47;;;3.17;;
4794;SDS011;2411;47.060;15.064;2022-09-30T06:39:05;3.20;;;3.00;;
4794;SDS011;2411;47.060;15.064;2022-09-30T06:41:38;4.10;;;3.10;;
4794;SDS011;2411;47.060;15.064;2022-09-30T06:44:07;3.67;;;3.37;;
4794;SDS011;2411;47.060;15.064;2022-09-30T06:46:35;3.03;;;2.83;;
4794;SDS011;2411;47.060;15.064;2022-09-30T06:49:16;2.97;;;2.77;;
4794;SDS011;2411;47.060;15.064;2022-09-30T06:51:43;1.93;;;1.83;;
4794;SDS011;2411;47.060;15.064;2022-09-30T06:54:10;3.97;;;3.60;;
4794;SDS011;2411;47.060;15.064;2022-09-30T06:56:37;1.80;;;1.70;;
4794;SDS011;2411;47.060;15.064;2022-09-30T06:59:04;2.37;;;2.27;;
4794;SDS011;2411;47.060;15.064;2022-09-30T07:01:32;2.10;;;2.00;;
4794;SDS011;2411;47.060;15.064;2022-09-30T07:03:59;2.17;;;1.97;;
4794;SDS011;2411;47.060;15.064;2022-09-30T07:06:28;1.93;;;1.80;;
4794;SDS011;2411;47.060;15.064;2022-09-30T07:08:56;3.90;;;2.53;;
4794;SDS011;2411;47.060;15.064;2022-09-30T07:11:23;2.03;;;1.93;;
4794;SDS011;2411;47.060;15.064;2022-09-30T07:13:50;2.17;;;2.07;;
4794;SDS011;2411;47.060;15.064;2022-09-30T07:16:18;2.30;;;2.20;;
4794;SDS011;2411;47.060;15.064;2022-09-30T07:18:46;1.90;;;1.80;;
4794;SDS011;2411;47.060;15.064;2022-09-30T07:21:14;6.30;;;2.50;;
4794;SDS011;2411;47.060;15.064;2022-09-30T07:23:42;2.30;;;2.20;;
4794;SDS011;2411;47.060;15.064;2022-09-30T07:26:14;3.43;;;2.63;;
4794;SDS011;2411;47.060;15.064;2022-09-30T07:28:46;8.53;;;6.03;;
4794;SDS011;2411;47.060;15.064;2022-09-30T07:31:17;6.30;;;5.13;;
4794;SDS011;2411;47.060;15.064;2022-09-30T07:33:59;3.80;;;3.40;;
4794;SDS011;2411;47.060;15.064;2022-09-30T07:36:26;2.70;;;2.57;;
4794;SDS011;2411;47.060;15.064;2022-09-30T07:38:59;11.23;;;2.87;;
4794;SDS011;2411;47.060;15.064;2022-09-30T07:41:33;3.20;;;2.20;;
4794;SDS011;2411;47.060;15.064;2022-09-30T07:44:03;2.27;;;2.07;;
4794;SDS011;2411;47.060;15.064;2022-09-30T07:46:33;2.60;;;2.50;;
4794;SDS011;2411;47.060;15.064;2022-09-30T07:49:04;3.97;;;2.53;;
4794;SDS011;2411;47.060;15.064;2022-09-30T07:51:38;2.77;;;2.37;;
4794;SDS011;2411;47.060;15.064;2022-09-30T07:54:07;2.20;;;2.07;;
4794;SDS011;2411;47.060;15.064;2022-09-30T07:56:45;2.27;;;2.17;;
4794;SDS011;2411;47.060;15.064;2022-09-30T07:59:34;2.30;;;2.10;;
4794;SDS011;2411;47.060;15.064;2022-09-30T08:02:04;2.30;;;2.10;;
4794;SDS011;2411;47.060;15.064;2022-09-30T08:04:32;4.10;;;2.90;;
4794;SDS011;2411;47.060;15.064;2022-09-30T08:07:01;6.83;;;2.67;;
4794;SDS011;2411;47.060;15.064;2022-09-30T08:09:28;2.77;;;2.57;;
4794;SDS011;2411;47.060;15.064;2022-09-30T08:11:56;2.40;;;2.20;;
4794;SDS011;2411;47.060;15.064;2022-09-30T08:14:24;2.53;;;2.07;;
4794;SDS011;2411;47.060;15.064;2022-09-30T08:16:53;5.23;;;2.03;;
4794;SDS011;2411;47.060;15.064;2022-09-30T08:19:22;10.60;;;2.63;;
4794;SDS011;2411;47.060;15.064;2022-09-30T08:21:50;2.73;;;1.90;;
4794;SDS011;2411;47.060;15.064;2022-09-30T08:24:19;5.17;;;3.23;;
4794;SDS011;2411;47.060;15.064;2022-09-30T08:26:47;4.77;;;4.27;;
4794;SDS011;2411;47.060;15.064;2022-09-30T08:29:14;5.60;;;5.10;;
4794;SDS011;2411;47.060;15.064;2022-09-30T08:31:50;6.83;;;6.00;;
4794;SDS011;2411;47.060;15.064;2022-09-30T08:34:18;8.17;;;5.70;;
4794;SDS011;2411;47.060;15.064;2022-09-30T08:36:45;8.63;;;7.97;;
4794;SDS011;2411;47.060;15.064;2022-09-30T08:39:12;7.30;;;6.60;;
4794;SDS011;2411;47.060;15.064;2022-09-30T08:44:41;6.43;;;5.83;;
4794;SDS011;2411;47.060;15.064;2022-09-30T08:52:55;3.40;;;3.20;;
4794;SDS011;2411;47.060;15.064;2022-09-30T08:55:28;4.43;;;3.30;;
4794;SDS011;2411;47.060;15.064;2022-09-30T08:58:03;3.20;;;3.00;;
4794;SDS011;2411;47.060;15.064;2022-09-30T09:00:32;4.50;;;3.20;;
4794;SDS011;2411;47.060;15.064;2022-09-30T09:03:00;3.50;;;2.63;;
4794;SDS011;2411;47.060;15.064;2022-09-30T09:08:30;2.90;;;2.20;;
4794;SDS011;2411;47.060;15.064;2022-09-30T09:11:34;2.00;;;1.90;;
4794;SDS011;2411;47.060;15.064;2022-09-30T09:14:25;1.77;;;1.67;;
4794;SDS011;2411;47.060;15.064;2022-09-30T09:19:24;1.80;;;1.70;;
4794;SDS011;2411;47.060;15.064;2022-09-30T09:21:59;2.30;;;1.63;;
4794;SDS011;2411;47.060;15.064;2022-09-30T09:24:39;1.70;;;1.40;;
4794;SDS011;2411;47.060;15.064;2022-09-30T09:27:20;4.60;;;1.60;;
4794;SDS011;2411;47.060;15.064;2022-09-30T09:29:56;1.67;;;1.33;;
4794;SDS011;2411;47.060;15.064;2022-09-30T09:32:33;0.97;;;0.97;;
4794;SDS011;2411;47.060;15.064;2022-09-30T09:35:47;2.20;;;1.30;;
4794;SDS011;2411;47.060;15.064;2022-09-30T09:46:16;0.93;;;0.70;;
4794;SDS011;2411;47.060;15.064;2022-09-30T09:48:47;0.80;;;0.80;;
4794;SDS011;2411;47.060;15.064;2022-09-30T09:53:56;0.73;;;0.60;;
4794;SDS011;2411;47.060;15.064;2022-09-30T09:56:31;0.90;;;0.90;;
4794;SDS011;2411;47.060;15.064;2022-09-30T10:04:25;0.80;;;0.80;;
4794;SDS011;2411;47.060;15.064;2022-09-30T10:06:56;0.90;;;0.90;;
4794;SDS011;2411;47.060;15.064;2022-09-30T10:09:45;2.10;;;0.63;;
4794;SDS011;2411;47.060;15.064;2022-09-30T10:14:39;2.00;;;0.70;;
4794;SDS011;2411;47.060;15.064;2022-09-30T10:17:19;0.60;;;0.60;;
4794;SDS011;2411;47.060;15.064;2022-09-30T10:19:51;0.60;;;0.60;;
4794;SDS011;2411;47.060;15.064;2022-09-30T10:22:26;0.80;;;0.80;;
4794;SDS011;2411;47.060;15.064;2022-09-30T10:25:09;6.13;;;2.10;;
4794;SDS011;2411;47.060;15.064;2022-09-30T10:27:36;1.23;;;0.70;;
4794;SDS011;2411;47.060;15.064;2022-09-30T10:30:12;0.80;;;0.80;;
4794;SDS011;2411;47.060;15.064;2022-09-30T10:32:39;4.67;;;0.80;;
4794;SDS011;2411;47.060;15.064;2022-09-30T10:35:10;0.70;;;0.70;;
4794;SDS011;2411;47.060;15.064;2022-09-30T10:37:49;0.90;;;0.90;;
4794;SDS011;2411;47.060;15.064;2022-09-30T10:40:18;2.27;;;0.70;;
4794;SDS011;2411;47.060;15.064;2022-09-30T10:42:48;0.70;;;0.70;;
4794;SDS011;2411;47.060;15.064;2022-09-30T10:45:20;0.60;;;0.60;;
4794;SDS011;2411;47.060;15.064;2022-09-30T10:47:50;0.60;;;0.60;;
4794;SDS011;2411;47.060;15.064;2022-09-30T10:50:24;1.30;;;0.70;;
4794;SDS011;2411;47.060;15.064;2022-09-30T10:53:00;0.83;;;0.73;;
4794;SDS011;2411;47.060;15.064;2022-09-30T10:55:34;1.63;;;0.90;;
4794;SDS011;2411;47.060;15.064;2022-09-30T11:01:25;0.80;;;0.80;;
4794;SDS011;2411;47.060;15.064;2022-09-30T11:04:06;0.90;;;0.70;;
4794;SDS011;2411;47.060;15.064;2022-09-30T11:09:57;0.70;;;0.70;;
4794;SDS011;2411;47.060;15.064;2022-09-30T11:20:29;2.33;;;0.70;;
4794;SDS011;2411;47.060;15.064;2022-09-30T11:23:17;0.80;;;0.80;;
4794;SDS011;2411;47.060;15.064;2022-09-30T11:31:13;0.80;;;0.80;;
4794;SDS011;2411;47.060;15.064;2022-09-30T11:33:57;1.00;;;1.00;;
4794;SDS011;2411;47.060;15.064;2022-09-30T11:37:02;0.60;;;0.60;;
4794;SDS011;2411;47.060;15.064;2022-09-30T11:42:32;1.53;;;0.83;;
4794;SDS011;2411;47.060;15.064;2022-09-30T11:45:08;5.80;;;1.00;;
4794;SDS011;2411;47.060;15.064;2022-09-30T11:50:32;1.50;;;1.40;;
4794;SDS011;2411;47.060;15.064;2022-09-30T11:53:23;1.10;;;0.90;;
4794;SDS011;2411;47.060;15.064;2022-09-30T11:56:42;1.43;;;1.00;;
4794;SDS011;2411;47.060;15.064;2022-09-30T11:59:13;1.20;;;1.10;;
4794;SDS011;2411;47.060;15.064;2022-09-30T12:01:51;1.00;;;1.00;;
4794;SDS011;2411;47.060;15.064;2022-09-30T12:09:25;0.80;;;0.80;;
4794;SDS011;2411;47.060;15.064;2022-09-30T12:12:01;2.03;;;1.03;;
4794;SDS011;2411;47.060;15.064;2022-09-30T12:14:44;0.70;;;0.70;;
4794;SDS011;2411;47.060;15.064;2022-09-30T12:17:24;2.53;;;1.33;;
4794;SDS011;2411;47.060;15.064;2022-09-30T12:19:57;1.03;;;1.00;;
4794;SDS011;2411;47.060;15.064;2022-09-30T12:22:31;1.20;;;1.10;;
4794;SDS011;2411;47.060;15.064;2022-09-30T12:25:12;1.30;;;1.20;;
4794;SDS011;2411;47.060;15.064;2022-09-30T12:27:44;2.60;;;1.20;;
4794;SDS011;2411;47.060;15.064;2022-09-30T12:30:22;1.80;;;1.70;;
4794;SDS011;2411;47.060;15.064;2022-09-30T12:49:38;3.13;;;1.60;;
4794;SDS011;2411;47.060;15.064;2022-09-30T12:52:12;2.07;;;1.90;;
4794;SDS011;2411;47.060;15.064;2022-09-30T12:54:47;5.63;;;1.67;;
4794;SDS011;2411;47.060;15.064;2022-09-30T12:57:23;4.17;;;1.73;;
4794;SDS011;2411;47.060;15.064;2022-09-30T12:59:55;1.10;;;1.10;;
4794;SDS011;2411;47.060;15.064;2022-09-30T13:13:24;2.73;;;1.10;;
4794;SDS011;2411;47.060;15.064;2022-09-30T13:15:54;1.63;;;1.40;;
4794;SDS011;2411;47.060;15.064;2022-09-30T13:31:28;1.40;;;1.30;;
4794;SDS011;2411;47.060;15.064;2022-09-30T13:36:31;1.53;;;1.30;;
4794;SDS011;2411;47.060;15.064;2022-09-30T13:44:32;2.20;;;1.23;;
4794;SDS011;2411;47.060;15.064;2022-09-30T13:47:14;1.37;;;1.37;;
4794;SDS011;2411;47.060;15.064;2022-09-30T13:49:52;3.17;;;1.33;;
4794;SDS011;2411;47.060;15.064;2022-09-30T13:52:28;1.70;;;1.60;;
4794;SDS011;2411;47.060;15.064;2022-09-30T13:55:23;6.93;;;1.67;;
4794;SDS011;2411;47.060;15.064;2022-09-30T14:00:57;2.03;;;1.47;;
4794;SDS011;2411;47.060;15.064;2022-09-30T14:03:54;1.50;;;1.40;;
4794;SDS011;2411;47.060;15.064;2022-09-30T14:09:36;1.87;;;1.77;;
4794;SDS011;2411;47.060;15.064;2022-09-30T14:23:30;1.80;;;1.70;;
4794;SDS011;2411;47.060;15.064;2022-09-30T14:28:48;2.20;;;1.90;;
4794;SDS011;2411;47.060;15.064;2022-09-30T14:31:21;4.00;;;2.27;;
4794;SDS011;2411;47.060;15.064;2022-09-30T14:33:49;1.90;;;1.67;;
4794;SDS011;2411;47.060;15.064;2022-09-30T14:36:18;1.70;;;1.60;;
4794;SDS011;2411;47.060;15.064;2022-09-30T14:38:48;3.67;;;1.90;;
4794;SDS011;2411;47.060;15.064;2022-09-30T14:41:23;2.40;;;2.20;;
4794;SDS011;2411;47.060;15.064;2022-09-30T14:43:52;2.57;;;2.20;;
4794;SDS011;2411;47.060;15.064;2022-09-30T14:49:05;1.90;;;1.80;;
4794;SDS011;2411;47.060;15.064;2022-09-30T14:51:38;2.63;;;1.80;;
4794;SDS011;2411;47.060;15.064;2022-09-30T14:54:42;2.57;;;2.37;;
4794;SDS011;2411;47.060;15.064;2022-09-30T14:57:14;2.57;;;2.37;;
4794;SDS011;2411;47.060;15.064;2022-09-30T14:59:42;3.27;;;2.27;;
4794;SDS011;2411;47.060;15.064;2022-09-30T15:02:16;2.30;;;2.10;;
4794;SDS011;2411;47.060;15.064;2022-09-30T15:04:49;2.60;;;2.40;;
4794;SDS011;2411;47.060;15.064;2022-09-30T15:07:17;9.03;;;6.40;;
4794;SDS011;2411;47.060;15.064;2022-09-30T15:09:45;4.70;;;3.00;;
4794;SDS011;2411;47.060;15.064;2022-09-30T15:12:14;2.77;;;2.57;;
4794;SDS011;2411;47.060;15.064;2022-09-30T15:14:46;2.77;;;2.57;;
4794;SDS011;2411;47.060;15.064;2022-09-30T15:17:28;3.67;;;3.03;;
4794;SDS011;2411;47.060;15.064;2022-09-30T15:20:00;3.07;;;2.87;;
4794;SDS011;2411;47.060;15.064;2022-09-30T15:22:42;4.77;;;4.27;;
4794;SDS011;2411;47.060;15.064;2022-09-30T15:25:10;6.10;;;3.60;;
4794;SDS011;2411;47.060;15.064;2022-09-30T15:27:37;4.60;;;4.07;;
4794;SDS011;2411;47.060;15.064;2022-09-30T15:30:38;7.50;;;3.90;;
4794;SDS011;2411;47.060;15.064;2022-09-30T15:32:58;3.80;;;3.50;;
4794;SDS011;2411;47.060;15.064;2022-09-30T15:35:28;3.20;;;3.00;;
4794;SDS011;2411;47.060;15.064;2022-09-30T15:38:06;3.60;;;3.40;;
4794;SDS011;2411;47.060;15.064;2022-09-30T15:40:35;3.07;;;2.97;;
4794;SDS011;2411;47.060;15.064;2022-09-30T15:43:29;3.47;;;3.23;;
4794;SDS011;2411;47.060;15.064;2022-09-30T15:46:58;3.30;;;3.10;;
4794;SDS011;2411;47.060;15.064;2022-09-30T15:49:04;3.50;;;3.30;;
4794;SDS011;2411;47.060;15.064;2022-09-30T15:51:54;3.33;;;3.13;;
4794;SDS011;2411;47.060;15.064;2022-09-30T15:54:41;9.27;;;3.67;;
4794;SDS011;2411;47.060;15.064;2022-09-30T15:57:35;3.47;;;3.27;;
4794;SDS011;2411;47.060;15.064;2022-09-30T16:05:44;6.30;;;3.50;;
4794;SDS011;2411;47.060;15.064;2022-09-30T16:08:25;4.70;;;4.30;;
4794;SDS011;2411;47.060;15.064;2022-09-30T16:10:54;8.03;;;3.50;;
4794;SDS011;2411;47.060;15.064;2022-09-30T16:13:25;7.77;;;3.67;;
4794;SDS011;2411;47.060;15.064;2022-09-30T16:15:55;3.70;;;3.50;;
4794;SDS011;2411;47.060;15.064;2022-09-30T16:18:28;3.90;;;3.60;;
4794;SDS011;2411;47.060;15.064;2022-09-30T16:21:03;5.00;;;4.10;;
4794;SDS011;2411;47.060;15.064;2022-09-30T16:23:35;8.00;;;3.60;;
4794;SDS011;2411;47.060;15.064;2022-09-30T16:26:19;3.90;;;3.70;;
4794;SDS011;2411;47.060;15.064;2022-09-30T16:28:50;5.00;;;4.60;;
4794;SDS011;2411;47.060;15.064;2022-09-30T16:31:16;5.23;;;4.57;;
4794;SDS011;2411;47.060;15.064;2022-09-30T16:33:44;9.03;;;4.70;;
4794;SDS011;2411;47.060;15.064;2022-09-30T16:36:11;4.23;;;4.03;;
4794;SDS011;2411;47.060;15.064;2022-09-30T16:38:40;6.33;;;4.70;;
4794;SDS011;2411;47.060;15.064;2022-09-30T16:41:11;4.57;;;4.20;;
4794;SDS011;2411;47.060;15.064;2022-09-30T16:43:38;4.77;;;4.43;;
4794;SDS011;2411;47.060;15.064;2022-09-30T16:46:05;4.80;;;4.07;;
4794;SDS011;2411;47.060;15.064;2022-09-30T16:48:34;5.57;;;4.43;;
4794;SDS011;2411;47.060;15.064;2022-09-30T16:51:14;4.40;;;4.10;;
4794;SDS011;2411;47.060;15.064;2022-09-30T16:53:42;5.03;;;4.30;;
4794;SDS011;2411;47.060;15.064;2022-09-30T16:56:18;6.03;;;4.03;;
4794;SDS011;2411;47.060;15.064;2022-09-30T16:58:45;4.73;;;4.43;;
4794;SDS011;2411;47.060;15.064;2022-09-30T17:01:17;8.87;;;5.17;;
4794;SDS011;2411;47.060;15.064;2022-09-30T17:03:48;5.67;;;5.13;;
4794;SDS011;2411;47.060;15.064;2022-09-30T17:06:16;5.03;;;4.63;;
4794;SDS011;2411;47.060;15.064;2022-09-30T17:08:47;6.33;;;5.83;;
4794;SDS011;2411;47.060;15.064;2022-09-30T17:11:14;5.90;;;5.50;;
4794;SDS011;2411;47.060;15.064;2022-09-30T17:13:41;4.60;;;4.30;;
4794;SDS011;2411;47.060;15.064;2022-09-30T17:16:08;5.07;;;4.67;;
4794;SDS011;2411;47.060;15.064;2022-09-30T17:18:35;4.83;;;4.23;;
4794;SDS011;2411;47.060;15.064;2022-09-30T17:21:02;4.70;;;4.30;;
4794;SDS011;2411;47.060;15.064;2022-09-30T17:23:30;5.10;;;4.67;;
4794;SDS011;2411;47.060;15.064;2022-09-30T17:25:56;5.53;;;5.07;;
4794;SDS011;2411;47.060;15.064;2022-09-30T17:28:23;6.20;;;5.43;;
4794;SDS011;2411;47.060;15.064;2022-09-30T17:30:50;6.23;;;5.67;;
4794;SDS011;2411;47.060;15.064;2022-09-30T17:33:17;6.53;;;6.00;;
4794;SDS011;2411;47.060;15.064;2022-09-30T17:35:55;6.53;;;6.03;;
4794;SDS011;2411;47.060;15.064;2022-09-30T17:38:24;6.20;;;5.70;;
4794;SDS011;2411;47.060;15.064;2022-09-30T17:40:51;6.23;;;5.73;;
4794;SDS011;2411;47.060;15.064;2022-09-30T17:43:37;5.90;;;5.50;;
4794;SDS011;2411;47.060;15.064;2022-09-30T17:46:04;5.70;;;5.20;;
4794;SDS011;2411;47.060;15.064;2022-09-30T17:48:31;5.40;;;4.90;;
4794;SDS011;2411;47.060;15.064;2022-09-30T17:50:58;6.83;;;4.30;;
4794;SDS011;2411;47.060;15.064;2022-09-30T17:53:25;5.87;;;5.03;;
4794;SDS011;2411;47.060;15.064;2022-09-30T17:56:00;6.93;;;5.57;;
4794;SDS011;2411;47.060;15.064;2022-09-30T17:58:29;5.27;;;4.80;;
4794;SDS011;2411;47.060;15.064;2022-09-30T18:00:56;5.80;;;5.17;;
4794;SDS011;2411;47.060;15.064;2022-09-30T18:03:24;5.57;;;5.07;;
4794;SDS011;2411;47.060;15.064;2022-09-30T18:05:56;10.03;;;5.60;;
4794;SDS011;2411;47.060;15.064;2022-09-30T18:08:24;10.33;;;5.30;;
4794;SDS011;2411;47.060;15.064;2022-09-30T18:10:53;5.43;;;4.93;;
4794;SDS011;2411;47.060;15.064;2022-09-30T18:13:23;5.87;;;5.30;;
4794;SDS011;2411;47.060;15.064;2022-09-30T18:15:50;6.50;;;6.00;;
4794;SDS011;2411;47.060;15.064;2022-09-30T18:18:17;5.93;;;5.43;;
4794;SDS011;2411;47.060;15.064;2022-09-30T18:20:45;6.20;;;5.27;;
4794;SDS011;2411;47.060;15.064;2022-09-30T18:23:14;6.93;;;6.23;;
4794;SDS011;2411;47.060;15.064;2022-09-30T18:25:44;10.23;;;8.73;;
4794;SDS011;2411;47.060;15.064;2022-09-30T18:28:12;12.10;;;9.20;;
4794;SDS011;2411;47.060;15.064;2022-09-30T18:30:39;9.80;;;8.20;;
4794;SDS011;2411;47.060;15.064;2022-09-30T18:33:06;11.00;;;8.17;;
4794;SDS011;2411;47.060;15.064;2022-09-30T18:35:37;9.23;;;7.10;;
4794;SDS011;2411;47.060;15.064;2022-09-30T18:38:05;8.70;;;7.83;;
4794;SDS011;2411;47.060;15.064;2022-09-30T18:40:32;8.40;;;7.70;;
4794;SDS011;2411;47.060;15.064;2022-09-30T18:43:00;12.60;;;9.73;;
4794;SDS011;2411;47.060;15.064;2022-09-30T18:45:29;10.70;;;9.70;;
4794;SDS011;2411;47.060;15.064;2022-09-30T18:48:03;10.77;;;9.07;;
4794;SDS011;2411;47.060;15.064;2022-09-30T18:50:32;12.43;;;11.03;;
4794;SDS011;2411;47.060;15.064;2022-09-30T18:53:00;12.07;;;10.87;;
4794;SDS011;2411;47.060;15.064;2022-09-30T18:55:35;11.33;;;9.33;;